Time;durP1;ratioP1;P1;durP2;ratioP2;P2;SDS_P1;SDS_P2;PMS_P1;PMS_P2;Temp;Humidity;BMP_temperature;BMP_pressure;BME280_temperature;BME280_humidity;BME280_pressure;Samples;Min_cycle;Max_cycle;Signal;HPM_P1;HPM_P2
2024/03/17 00:02:18;;;;;;;6.10;2.55;;;;;;;10.94;53.64;100655.31;6122246;22;96807;-84
2024/03/17 00:04:43;;;;;;;11.55;3.28;;;;;;;10.92;53.36;100656.25;6097418;22;97134;-80
2024/03/17 00:07:09;;;;;;;7.75;2.72;;;;;;;10.95;53.50;100667.53;6097772;22;100127;-80
2024/03/17 00:09:34;;;;;;;7.75;2.80;;;;;;;10.89;53.52;100670.34;6148260;22;97812;-80
2024/03/17 00:12:00;;;;;;;5.43;2.65;;;;;;;10.92;53.27;100662.38;6123255;22;96854;-81
2024/03/17 00:14:28;;;;;;;6.82;2.78;;;;;;;10.95;53.54;100669.28;6122753;22;96746;-81
2024/03/17 00:16:53;;;;;;;13.68;3.25;;;;;;;10.84;53.72;100669.59;6122187;22;100268;-81
2024/03/17 00:19:19;;;;;;;7.00;3.08;;;;;;;10.76;53.87;100656.72;6147471;22;97344;-81
2024/03/17 00:21:44;;;;;;;8.35;2.83;;;;;;;10.75;54.25;100656.75;6147830;22;97106;-80
2024/03/17 00:24:10;;;;;;;7.82;2.80;;;;;;;10.69;53.86;100663.03;6122794;22;97132;-80
2024/03/17 00:26:35;;;;;;;8.05;3.05;;;;;;;10.64;54.25;100670.19;6147592;22;98043;-80
2024/03/17 00:29:03;;;;;;;7.65;3.20;;;;;;;10.54;54.50;100656.47;6122050;22;100786;-81
2024/03/17 00:31:28;;;;;;;7.60;2.83;;;;;;;10.57;54.27;100661.63;6148257;22;96725;-80
2024/03/17 00:33:54;;;;;;;6.32;3.40;;;;;;;10.61;54.09;100671.13;6096315;22;97129;-80
2024/03/17 00:36:20;;;;;;;6.68;3.15;;;;;;;10.58;54.38;100679.09;6122769;22;97562;-80
2024/03/17 00:38:45;;;;;;;7.85;3.05;;;;;;;10.54;54.22;100679.22;6122795;22;97252;-80
2024/03/17 00:41:11;;;;;;;6.72;2.53;;;;;;;10.53;54.30;100682.75;6122445;22;96789;-80
2024/03/17 00:43:37;;;;;;;11.80;2.90;;;;;;;10.55;54.46;100676.53;6123036;22;97162;-81
2024/03/17 00:46:03;;;;;;;7.05;3.08;;;;;;;10.56;54.14;100677.41;6122581;22;100376;-81
2024/03/17 00:48:28;;;;;;;10.88;2.80;;;;;;;10.56;54.10;100688.78;6097763;22;99045;-81
2024/03/17 00:50:56;;;;;;;7.30;2.50;;;;;;;10.50;54.29;100674.97;6122980;22;96670;-80
2024/03/17 00:53:21;;;;;;;9.40;3.15;;;;;;;10.50;54.05;100678.47;6097839;22;96984;-80
2024/03/17 00:55:54;;;;;;;10.13;3.80;;;;;;;10.51;54.30;100687.19;6097813;22;100849;-81
2024/03/17 00:58:20;;;;;;;12.88;3.13;;;;;;;10.47;53.93;100685.53;6073586;22;98786;-80
2024/03/17 01:00:47;;;;;;;7.50;2.85;;;;;;;10.41;54.20;100683.94;6098417;22;97229;-80
2024/03/17 01:03:14;;;;;;;7.13;2.65;;;;;;;10.37;54.18;100674.44;6097646;22;96865;-80
2024/03/17 01:05:42;;;;;;;6.80;2.95;;;;;;;10.36;54.22;100678.84;6097188;22;98571;-80
2024/03/17 01:08:09;;;;;;;11.60;3.25;;;;;;;10.30;54.38;100675.53;6122664;22;97349;-80
2024/03/17 01:10:37;;;;;;;8.13;2.67;;;;;;;10.22;54.33;100680.09;6098022;22;97062;-80
2024/03/17 01:13:05;;;;;;;9.52;2.88;;;;;;;10.23;54.25;100682.66;6097775;22;96866;-80
2024/03/17 01:15:30;;;;;;;6.50;3.00;;;;;;;10.19;54.44;100678.41;6122341;22;97439;-81
2024/03/17 01:17:56;;;;;;;9.98;2.90;;;;;;;10.16;54.86;100681.97;6147668;22;97539;-80
2024/03/17 01:20:21;;;;;;;7.18;2.85;;;;;;;10.19;54.81;100689.75;6149089;22;96799;-80
2024/03/17 01:22:47;;;;;;;9.68;3.38;;;;;;;10.12;54.63;100682.97;6148555;22;96717;-82
2024/03/17 01:25:13;;;;;;;7.30;3.70;;;;;;;10.09;54.86;100677.75;6147241;22;97441;-80
2024/03/17 01:27:38;;;;;;;8.98;3.55;;;;;;;9.99;54.26;100668.44;6097729;22;97206;-80
2024/03/17 01:30:05;;;;;;;7.28;3.30;;;;;;;10.02;54.25;100678.84;6096341;22;96585;-81
2024/03/17 01:32:30;;;;;;;8.60;3.20;;;;;;;10.08;54.28;100683.94;6071916;22;96836;-81
2024/03/17 01:34:56;;;;;;;13.00;3.00;;;;;;;9.99;54.65;100676.31;6145980;22;97776;-80
2024/03/17 01:37:21;;;;;;;11.60;2.95;;;;;;;9.91;54.94;100688.75;6146679;22;97326;-79
2024/03/17 01:39:47;;;;;;;11.20;3.70;;;;;;;9.87;55.26;100680.09;6096818;22;97172;-81
2024/03/17 01:42:12;;;;;;;8.10;3.00;;;;;;;9.86;54.89;100680.13;6147506;22;96673;-81
2024/03/17 01:44:38;;;;;;;9.40;3.05;;;;;;;9.94;54.95;100679.03;6147044;22;97318;-81
2024/03/17 01:47:04;;;;;;;7.15;2.58;;;;;;;9.84;54.63;100677.56;6122500;22;100175;-81
2024/03/17 01:49:30;;;;;;;8.45;2.75;;;;;;;9.81;55.04;100689.91;6147205;22;97118;-82
2024/03/17 01:51:56;;;;;;;10.80;3.55;;;;;;;9.80;54.81;100685.53;6122736;22;96772;-80
2024/03/17 01:54:21;;;;;;;9.82;2.55;;;;;;;9.70;55.05;100696.25;6121708;22;100519;-81
2024/03/17 01:56:47;;;;;;;8.07;2.55;;;;;;;9.69;54.80;100691.06;6148085;22;98435;-79
2024/03/17 01:59:14;;;;;;;11.00;3.13;;;;;;;9.71;54.87;100684.00;6122233;22;97074;-81
2024/03/17 02:01:40;;;;;;;11.60;3.63;;;;;;;9.64;54.94;100690.31;6149453;22;97030;-80
2024/03/17 02:04:06;;;;;;;5.55;2.45;;;;;;;9.57;55.07;100683.47;6147574;22;97303;-81
2024/03/17 02:06:32;;;;;;;12.02;3.55;;;;;;;9.52;55.35;100687.06;6122717;22;97170;-80
2024/03/17 02:08:58;;;;;;;10.77;4.00;;;;;;;9.55;55.09;100696.63;6123012;22;97072;-81
2024/03/17 02:11:28;;;;;;;7.72;3.47;;;;;;;9.58;55.23;100693.94;6123170;22;96725;-81
2024/03/17 02:13:55;;;;;;;7.57;2.80;;;;;;;9.60;55.03;100699.13;6122239;22;97931;-81
2024/03/17 02:16:21;;;;;;;9.80;3.10;;;;;;;9.63;55.00;100699.94;6073122;22;100397;-80
2024/03/17 02:18:47;;;;;;;7.45;2.80;;;;;;;9.57;55.18;100697.47;6097226;22;96614;-81
2024/03/17 02:21:14;;;;;;;9.02;3.78;;;;;;;9.53;54.96;100707.13;6097736;22;96804;-81
2024/03/17 02:23:40;;;;;;;10.35;4.22;;;;;;;9.58;55.29;100701.78;6097794;22;97559;-81
2024/03/17 02:26:06;;;;;;;7.13;3.38;;;;;;;9.57;55.08;100709.69;6121822;22;97589;-80
2024/03/17 02:28:39;;;;;;;9.52;3.72;;;;;;;9.50;55.12;100708.97;6148410;22;96987;-83
2024/03/17 02:31:06;;;;;;;10.13;4.45;;;;;;;9.38;55.16;100711.88;6097896;22;96718;-81
2024/03/17 02:33:32;;;;;;;10.82;4.70;;;;;;;9.37;55.53;100704.94;6072620;22;100391;-80
2024/03/17 02:35:57;;;;;;;7.88;4.45;;;;;;;9.25;55.69;100706.91;6147867;22;97237;-81
2024/03/17 02:41:07;;;;;;;10.57;4.85;;;;;;;9.32;55.36;100704.16;6147726;22;97089;-81
2024/03/17 02:43:32;;;;;;;11.88;5.28;;;;;;;9.28;55.55;100712.09;6121376;22;100409;-82
2024/03/17 02:45:58;;;;;;;12.38;4.45;;;;;;;9.28;55.86;100706.84;6122181;22;97274;-81
2024/03/17 02:48:23;;;;;;;10.05;4.53;;;;;;;9.26;55.38;100700.78;6147558;22;96704;-82
2024/03/17 02:50:49;;;;;;;10.73;4.72;;;;;;;9.30;55.64;100710.28;6122199;22;96757;-81
2024/03/17 02:53:14;;;;;;;13.10;4.97;;;;;;;9.29;55.71;100718.19;6097549;22;100219;-80
2024/03/17 02:55:40;;;;;;;9.23;4.07;;;;;;;9.22;55.53;100714.84;6121744;22;100243;-81
2024/03/17 02:58:06;;;;;;;9.20;3.80;;;;;;;9.21;55.82;100723.59;6121844;22;96655;-82
2024/03/17 03:00:32;;;;;;;9.88;3.40;;;;;;;9.16;55.79;100729.81;6122773;22;97207;-80
2024/03/17 03:02:57;;;;;;;8.25;3.45;;;;;;;9.17;55.52;100724.56;6121111;22;97468;-81
2024/03/17 03:05:23;;;;;;;9.20;3.55;;;;;;;9.13;55.60;100732.50;6120583;22;97963;-82
2024/03/17 03:07:48;;;;;;;11.48;3.85;;;;;;;9.08;55.36;100727.38;6121533;22;97163;-80
2024/03/17 03:10:14;;;;;;;9.00;3.40;;;;;;;9.13;55.57;100727.25;6097355;22;97116;-80
2024/03/17 03:12:39;;;;;;;15.57;4.05;;;;;;;9.02;55.36;100725.75;6122121;22;97227;-80
2024/03/17 03:15:05;;;;;;;14.18;3.88;;;;;;;9.15;55.28;100736.81;6097276;22;100210;-80
2024/03/17 03:17:31;;;;;;;8.82;3.42;;;;;;;9.07;55.02;100726.53;6096847;22;96690;-81
2024/03/17 03:19:56;;;;;;;16.00;4.30;;;;;;;9.08;55.57;100732.63;6140559;22;96820;-79
2024/03/17 03:22:22;;;;;;;18.25;3.40;;;;;;;9.00;55.19;100719.69;6115581;23;98427;-79
2024/03/17 03:24:47;;;;;;;12.70;3.78;;;;;;;8.97;55.34;100724.97;6116514;23;97336;-79
2024/03/17 03:27:13;;;;;;;7.65;2.92;;;;;;;8.92;54.88;100716.34;6069247;23;97255;-82
2024/03/17 03:29:38;;;;;;;11.13;3.22;;;;;;;8.90;54.98;100731.25;6093003;23;96938;-80
2024/03/17 03:32:04;;;;;;;9.80;2.70;;;;;;;8.92;55.53;100734.69;6117811;23;97700;-80
2024/03/17 03:34:30;;;;;;;10.93;3.67;;;;;;;8.84;55.09;100729.63;6117795;23;100365;-81
2024/03/17 03:36:56;;;;;;;6.35;2.83;;;;;;;8.83;55.21;100729.63;6118759;23;96643;-80
2024/03/17 03:39:21;;;;;;;12.55;3.55;;;;;;;8.75;55.53;100718.47;6118246;23;96746;-80
2024/03/17 03:41:47;;;;;;;8.68;4.10;;;;;;;8.73;55.76;100725.50;6118381;23;97439;-79
2024/03/17 03:44:13;;;;;;;8.77;2.90;;;;;;;8.71;55.71;100730.75;6117861;23;100719;-81
2024/03/17 03:46:38;;;;;;;7.75;2.65;;;;;;;8.71;55.10;100725.50;6117896;23;96654;-80
2024/03/17 03:49:04;;;;;;;8.95;2.92;;;;;;;8.72;55.40;100726.38;6069326;23;96854;-79
2024/03/17 03:51:29;;;;;;;9.13;3.28;;;;;;;8.62;55.21;100723.09;6117987;23;97854;-80
2024/03/17 03:53:55;;;;;;;13.32;2.75;;;;;;;8.54;55.20;100723.22;6117072;23;97062;-79
2024/03/17 03:56:21;;;;;;;14.57;3.25;;;;;;;8.60;55.52;100730.94;6117585;22;96753;-79
2024/03/17 03:58:46;;;;;;;10.43;2.90;;;;;;;8.52;55.21;100706.72;6117240;23;96872;-79
2024/03/17 04:01:12;;;;;;;10.68;4.15;;;;;;;8.57;55.37;100717.94;6118413;23;97422;-79
2024/03/17 04:03:38;;;;;;;9.10;3.42;;;;;;;8.47;55.53;100716.41;6117812;23;97434;-79
2024/03/17 04:06:05;;;;;;;11.35;3.22;;;;;;;8.39;56.13;100723.53;6118678;23;97079;-79
2024/03/17 04:08:32;;;;;;;10.48;2.88;;;;;;;8.43;55.54;100734.78;6093615;23;96802;-80
2024/03/17 04:10:58;;;;;;;6.30;2.50;;;;;;;8.41;55.55;100733.94;6093909;23;97983;-79
2024/03/17 04:13:23;;;;;;;8.88;2.90;;;;;;;8.39;56.08;100742.69;6119903;23;97758;-80
2024/03/17 04:15:49;;;;;;;7.95;2.78;;;;;;;8.37;55.62;100741.81;6117835;23;96751;-79
2024/03/17 04:18:17;;;;;;;16.13;3.63;;;;;;;8.37;55.59;100744.44;6093554;23;97092;-79
2024/03/17 04:20:43;;;;;;;15.32;3.53;;;;;;;8.29;55.74;100748.06;6116902;23;100695;-79
2024/03/17 04:23:08;;;;;;;6.95;2.88;;;;;;;8.24;56.21;100745.56;6092823;23;97221;-79
2024/03/17 04:25:34;;;;;;;7.32;2.70;;;;;;;8.28;55.85;100747.22;6092752;23;96761;-80
2024/03/17 04:27:59;;;;;;;8.73;2.83;;;;;;;8.15;55.89;100737.88;6092672;23;96962;-79
2024/03/17 04:30:25;;;;;;;9.70;3.17;;;;;;;8.02;55.82;100725.88;6116941;23;98123;-79
2024/03/17 04:32:51;;;;;;;14.73;3.35;;;;;;;8.23;55.75;100745.56;6117147;23;97564;-79
2024/03/17 04:35:17;;;;;;;11.05;3.45;;;;;;;7.99;56.44;100725.94;6117524;23;97052;-80
2024/03/17 04:37:43;;;;;;;11.23;3.00;;;;;;;8.17;56.03;100749.16;6092956;23;97317;-81
2024/03/17 04:40:11;;;;;;;12.30;4.15;;;;;;;8.12;55.82;100751.88;6142115;22;97403;-82
2024/03/17 04:42:38;;;;;;;9.43;3.78;;;;;;;8.06;56.30;100751.13;6117143;23;97253;-79
2024/03/17 04:45:06;;;;;;;13.15;3.15;;;;;;;7.95;56.07;100740.81;6091634;23;96762;-79
2024/03/17 04:47:31;;;;;;;8.00;3.20;;;;;;;7.99;56.10;100747.72;6117743;22;96757;-78
2024/03/17 04:49:57;;;;;;;12.90;4.25;;;;;;;7.98;55.99;100756.47;6117889;23;97961;-80
2024/03/17 04:52:22;;;;;;;10.32;2.72;;;;;;;7.95;56.47;100759.13;6117738;23;97342;-79
2024/03/17 04:54:48;;;;;;;9.65;3.17;;;;;;;7.90;56.41;100759.19;6117941;23;97104;-79
2024/03/17 04:57:13;;;;;;;8.63;2.83;;;;;;;7.86;56.23;100754.91;6068821;23;97289;-79
2024/03/17 04:59:39;;;;;;;11.18;2.97;;;;;;;7.90;56.33;100766.16;6118894;23;97398;-80
2024/03/17 05:02:05;;;;;;;12.07;2.95;;;;;;;7.94;56.26;100750.44;6119694;23;97246;-80
2024/03/17 05:04:31;;;;;;;9.77;2.88;;;;;;;7.98;55.94;100753.00;6093284;23;97292;-80
2024/03/17 05:06:56;;;;;;;16.85;3.20;;;;;;;7.95;55.82;100761.75;6093321;23;96805;-80
2024/03/17 05:09:22;;;;;;;10.50;3.20;;;;;;;7.94;55.72;100765.22;6092264;23;100722;-79
2024/03/17 05:11:51;;;;;;;7.22;3.28;;;;;;;7.97;55.93;100754.75;6117745;23;97590;-80
2024/03/17 05:14:19;;;;;;;17.27;3.35;;;;;;;7.98;55.79;100761.69;6092819;22;97096;-79
2024/03/17 05:16:44;;;;;;;9.57;3.13;;;;;;;7.92;55.73;100767.88;6118555;22;96973;-79
2024/03/17 05:19:10;;;;;;;9.10;2.47;;;;;;;7.90;55.58;100758.31;6093010;23;100557;-80
2024/03/17 05:21:36;;;;;;;11.18;3.13;;;;;;;7.86;56.03;100759.28;6117457;23;101288;-80
2024/03/17 05:24:02;;;;;;;8.15;2.83;;;;;;;7.89;55.86;100761.84;6117567;23;97121;-79
2024/03/17 05:26:27;;;;;;;11.38;2.95;;;;;;;7.91;55.84;100765.28;6118451;23;96789;-80
2024/03/17 05:28:53;;;;;;;8.55;2.67;;;;;;;7.93;55.43;100774.81;6117409;23;97348;-80
2024/03/17 05:31:21;;;;;;;10.25;3.05;;;;;;;7.99;55.49;100784.31;6117949;22;100149;-82
2024/03/17 05:33:47;;;;;;;8.85;2.90;;;;;;;8.02;55.45;100779.03;6091926;23;96681;-79
2024/03/17 05:36:12;;;;;;;10.02;3.85;;;;;;;8.06;55.14;100787.72;6093103;23;96797;-80
2024/03/17 05:38:38;;;;;;;6.68;2.55;;;;;;;7.87;55.65;100780.16;6092820;23;97546;-80
2024/03/17 05:41:08;;;;;;;6.55;2.47;;;;;;;7.90;55.49;100774.88;6117860;23;97539;-79
2024/03/17 05:43:35;;;;;;;6.25;2.13;;;;;;;7.87;55.58;100792.34;6117717;23;97282;-81
2024/03/17 05:46:02;;;;;;;13.90;2.90;;;;;;;7.88;55.41;100789.75;6067984;23;96720;-81
2024/03/17 05:48:28;;;;;;;6.63;2.53;;;;;;;7.99;54.93;100766.00;6116691;23;97355;-80
2024/03/17 05:50:54;;;;;;;5.75;2.67;;;;;;;8.28;54.60;100799.53;6093515;23;97540;-80
2024/03/17 05:53:20;;;;;;;11.02;2.88;;;;;;;8.25;54.25;100799.56;6117570;22;97172;-82
2024/03/17 05:55:46;;;;;;;7.28;3.45;;;;;;;8.39;54.06;100809.84;6117477;23;96765;-80
2024/03/17 05:58:12;;;;;;;10.93;3.15;;;;;;;8.42;53.70;100809.78;6091742;23;98904;-80
2024/03/17 06:00:41;;;;;;;9.20;2.13;;;;;;;8.52;54.07;100782.59;6117560;23;97564;-80
2024/03/17 06:03:06;;;;;;;15.15;3.20;;;;;;;8.78;53.52;100789.06;6092991;23;96734;-80
2024/03/17 06:05:36;;;;;;;6.43;2.17;;;;;;;8.93;52.62;100780.06;6068376;23;97014;-80
2024/03/17 06:08:04;;;;;;;12.85;2.75;;;;;;;9.17;53.10;100792.66;6117104;23;99033;-80
2024/03/17 06:10:34;;;;;;;12.25;3.33;;;;;;;9.43;52.48;100786.00;6092258;23;97273;-81
2024/03/17 06:13:00;;;;;;;17.40;2.58;;;;;;;9.74;51.56;100791.41;6117892;22;97120;-81
2024/03/17 06:15:26;;;;;;;11.95;2.75;;;;;;;9.85;50.95;100784.16;6117804;23;96868;-80
2024/03/17 06:17:52;;;;;;;9.38;2.50;;;;;;;10.17;50.44;100793.00;6092794;23;100155;-79
2024/03/17 06:20:23;;;;;;;6.63;2.33;;;;;;;10.15;49.69;100771.19;6116792;23;97452;-81
2024/03/17 06:22:49;;;;;;;12.33;2.80;;;;;;;10.40;49.31;100795.09;6117269;23;96902;-80
2024/03/17 06:25:15;;;;;;;11.45;3.08;;;;;;;10.62;49.22;100806.75;6092604;23;97102;-80
2024/03/17 06:27:40;;;;;;;13.15;2.90;;;;;;;10.92;48.46;100796.31;6092852;23;97801;-81
2024/03/17 06:30:06;;;;;;;10.20;2.50;;;;;;;11.28;47.80;100798.78;6116960;23;97276;-81
2024/03/17 06:32:32;;;;;;;13.93;3.03;;;;;;;11.62;46.54;100810.94;6091386;23;96737;-81
2024/03/17 06:34:59;;;;;;;9.52;3.25;;;;;;;11.87;45.93;100809.31;6115993;23;96831;-80
2024/03/17 06:37:24;;;;;;;11.93;2.95;;;;;;;12.11;45.31;100802.38;6116790;23;100778;-81
2024/03/17 06:39:50;;;;;;;10.60;2.35;;;;;;;12.54;44.73;100810.63;6091589;23;100459;-81
2024/03/17 06:42:16;;;;;;;10.75;2.55;;;;;;;12.85;44.49;100805.13;6091577;23;96667;-81
2024/03/17 06:44:41;;;;;;;9.73;2.72;;;;;;;13.22;43.79;100824.88;6116419;23;96736;-81
2024/03/17 06:47:07;;;;;;;11.90;3.10;;;;;;;13.47;43.23;100831.00;6092053;23;100248;-81
2024/03/17 06:49:32;;;;;;;10.85;2.25;;;;;;;13.75;42.16;100836.03;6092309;23;97291;-80
2024/03/17 06:51:58;;;;;;;12.40;3.10;;;;;;;13.98;42.12;100831.66;6117758;23;97173;-81
2024/03/17 06:54:24;;;;;;;6.63;2.00;;;;;;;14.27;41.02;100822.53;6117421;23;97100;-80
2024/03/17 06:56:50;;;;;;;11.00;2.65;;;;;;;14.78;40.80;100831.88;6092432;23;97288;-80
2024/03/17 06:59:16;;;;;;;11.00;2.35;;;;;;;15.11;40.06;100834.81;6091860;23;100361;-80
2024/03/17 07:01:41;;;;;;;11.82;2.45;;;;;;;15.28;39.64;100841.97;6092152;23;96731;-81
2024/03/17 07:04:07;;;;;;;10.45;2.78;;;;;;;15.64;39.05;100838.56;6092668;23;97124;-78
2024/03/17 07:06:34;;;;;;;8.32;2.35;;;;;;;15.69;38.40;100835.75;6142330;22;97401;-79
2024/03/17 07:08:59;;;;;;;9.02;2.40;;;;;;;16.10;37.71;100832.91;6091938;23;100589;-78
2024/03/17 07:11:24;;;;;;;14.38;2.55;;;;;;;16.06;37.29;100837.50;6117391;23;97186;-81
2024/03/17 07:13:53;;;;;;;8.75;2.80;;;;;;;16.19;36.73;100838.59;6116765;23;97335;-79
2024/03/17 07:16:18;;;;;;;11.73;2.78;;;;;;;16.52;37.11;100824.59;6116863;23;100395;-78
2024/03/17 07:18:44;;;;;;;13.27;3.10;;;;;;;16.85;36.54;100834.44;6092156;23;100213;-77
2024/03/17 07:21:10;;;;;;;9.20;2.90;;;;;;;17.23;35.84;100835.06;6142167;22;97394;-77
2024/03/17 07:23:36;;;;;;;10.82;3.33;;;;;;;16.86;36.22;100839.66;6092585;23;96840;-78
2024/03/17 07:26:04;;;;;;;9.10;2.80;;;;;;;16.49;36.95;100845.94;6092299;23;97990;-78
2024/03/17 07:28:31;;;;;;;15.48;3.83;;;;;;;16.66;36.21;100838.00;6117267;22;101277;-79
2024/03/17 07:30:57;;;;;;;15.77;3.78;;;;;;;16.83;36.22;100846.91;6092435;23;96638;-79
2024/03/17 07:33:24;;;;;;;15.25;3.10;;;;;;;16.42;36.44;100840.09;6117192;23;96825;-78
2024/03/17 07:35:58;;;;;;;10.68;3.00;;;;;;;16.05;37.33;100851.66;6091408;22;100703;-79
2024/03/17 07:38:27;;;;;;;11.85;3.03;;;;;;;15.63;37.47;100858.03;6067473;23;101105;-78
2024/03/17 07:41:00;;;;;;;11.30;2.70;;;;;;;14.95;38.87;100852.25;6116735;23;96726;-81
2024/03/17 07:43:27;;;;;;;10.30;3.00;;;;;;;15.12;39.24;100851.50;6067466;23;96788;-80
2024/03/17 07:46:07;;;;;;;11.02;3.50;;;;;;;14.84;39.32;100846.59;6092041;23;97679;-81
2024/03/17 07:48:37;;;;;;;14.70;3.33;;;;;;;14.28;40.20;100832.16;6091445;23;100734;-79
2024/03/17 07:51:09;;;;;;;14.23;3.53;;;;;;;14.41;40.36;100843.09;6091569;23;97254;-79
2024/03/17 07:53:35;;;;;;;13.52;3.28;;;;;;;15.16;39.22;100847.84;6090720;23;96782;-83
2024/03/17 07:56:03;;;;;;;13.40;2.95;;;;;;;15.47;38.21;100847.28;6090041;23;100610;-81
2024/03/17 07:58:29;;;;;;;13.45;2.83;;;;;;;16.04;38.02;100837.56;6115162;22;98749;-79
2024/03/17 08:01:03;;;;;;;13.65;3.72;;;;;;;15.76;37.71;100829.22;6115832;22;96737;-80
2024/03/17 08:03:29;;;;;;;10.48;2.42;;;;;;;15.20;38.13;100832.69;6091383;23;96807;-81
2024/03/17 08:05:55;;;;;;;14.10;3.38;;;;;;;14.90;38.60;100848.97;6090899;23;100747;-79
2024/03/17 08:08:21;;;;;;;15.93;2.72;;;;;;;14.52;39.25;100851.47;6115214;23;97418;-80
2024/03/17 08:10:48;;;;;;;10.43;2.35;;;;;;;14.01;39.08;100844.72;6090617;23;96674;-79
2024/03/17 08:13:17;;;;;;;11.73;2.97;;;;;;;15.08;38.39;100844.66;6117776;23;96812;-79
2024/03/17 08:15:43;;;;;;;12.57;4.15;;;;;;;16.04;36.45;100840.19;6117873;23;97597;-79
2024/03/17 08:18:09;;;;;;;10.98;2.75;;;;;;;15.80;36.82;100836.09;6093804;23;97489;-79
2024/03/17 08:20:43;;;;;;;8.55;2.35;;;;;;;14.91;37.54;100843.59;6092939;23;97024;-79
2024/03/17 08:23:10;;;;;;;12.30;3.22;;;;;;;15.94;36.34;100831.00;6094225;23;96765;-79
2024/03/17 08:25:36;;;;;;;9.80;2.63;;;;;;;16.67;35.28;100836.22;6117084;23;97677;-80
2024/03/17 08:28:02;;;;;;;11.45;2.90;;;;;;;17.14;35.09;100819.66;6117539;23;100250;-80
2024/03/17 08:30:30;;;;;;;9.88;3.58;;;;;;;17.76;33.54;100825.09;6117463;23;96675;-81
2024/03/17 08:32:56;;;;;;;14.77;3.25;;;;;;;16.86;34.77;100826.41;6118293;23;96882;-82
2024/03/17 08:35:21;;;;;;;13.93;3.15;;;;;;;16.94;34.39;100826.00;6117400;22;100364;-80
2024/03/17 08:37:47;;;;;;;11.15;2.83;;;;;;;17.94;33.38;100829.41;6093418;23;97709;-80
2024/03/17 08:40:13;;;;;;;6.82;2.15;;;;;;;17.55;32.92;100838.63;6118174;23;96783;-81
2024/03/17 08:42:39;;;;;;;9.95;2.38;;;;;;;18.47;31.72;100832.56;6093562;23;96734;-80
2024/03/17 08:45:05;;;;;;;6.32;1.95;;;;;;;19.21;30.99;100824.53;6068044;23;100549;-81
2024/03/17 08:47:31;;;;;;;16.80;3.03;;;;;;;19.67;29.57;100812.84;6117726;23;96663;-80
2024/03/17 08:49:58;;;;;;;7.55;2.22;;;;;;;20.19;30.00;100812.09;6091707;23;96697;-82
2024/03/17 08:52:23;;;;;;;8.27;2.78;;;;;;;20.59;28.56;100809.44;6142987;22;96831;-82
2024/03/17 08:54:51;;;;;;;13.02;2.88;;;;;;;20.89;28.27;100816.31;6117305;23;99103;-80
2024/03/17 08:57:17;;;;;;;7.57;2.50;;;;;;;21.18;27.64;100804.44;6117993;22;97267;-81
2024/03/17 08:59:45;;;;;;;7.55;2.30;;;;;;;21.72;26.79;100805.94;6117069;23;96715;-81
2024/03/17 09:02:13;;;;;;;9.00;2.40;;;;;;;21.79;27.22;100803.69;6092358;23;96807;-81
2024/03/17 09:04:39;;;;;;;6.03;2.75;;;;;;;22.03;27.00;100812.53;6115295;23;100534;-80
2024/03/17 09:07:04;;;;;;;12.48;2.20;;;;;;;21.39;27.74;100814.59;6092073;23;100666;-81
2024/03/17 09:09:30;;;;;;;8.77;2.60;;;;;;;20.76;29.03;100819.78;6116539;23;96950;-80
2024/03/17 09:11:55;;;;;;;8.40;2.35;;;;;;;20.21;29.02;100820.81;6118453;22;96754;-80
2024/03/17 09:14:21;;;;;;;8.60;2.67;;;;;;;18.76;31.03;100822.88;6115438;23;97827;-81
2024/03/17 09:16:47;;;;;;;7.53;1.98;;;;;;;18.23;31.06;100829.53;6116282;22;100152;-80
2024/03/17 09:19:13;;;;;;;10.90;2.75;;;;;;;17.95;31.55;100824.94;6116485;23;96721;-82
2024/03/17 09:21:39;;;;;;;9.18;2.63;;;;;;;17.78;31.56;100818.81;6091298;23;97041;-81
2024/03/17 09:24:08;;;;;;;9.57;2.45;;;;;;;17.06;32.30;100816.53;6115194;23;98435;-80
2024/03/17 09:26:34;;;;;;;8.93;2.63;;;;;;;17.20;32.23;100820.16;6114583;23;97593;-80
2024/03/17 09:29:00;;;;;;;10.73;2.35;;;;;;;18.46;31.13;100820.22;6113713;23;96768;-80
2024/03/17 09:31:26;;;;;;;10.77;2.63;;;;;;;18.58;30.64;100819.50;6114974;23;97327;-83
2024/03/17 09:33:51;;;;;;;5.65;2.15;;;;;;;18.72;31.02;100821.34;6089182;23;97920;-81
2024/03/17 09:36:18;;;;;;;9.68;2.72;;;;;;;17.67;31.72;100829.13;6141099;22;97896;-77
2024/03/17 09:38:45;;;;;;;7.70;2.50;;;;;;;17.07;31.84;100834.16;6115439;23;96739;-82
2024/03/17 09:41:21;;;;;;;9.55;2.28;;;;;;;16.55;32.49;100827.09;6067679;23;97036;-79
2024/03/17 09:43:48;;;;;;;7.55;2.13;;;;;;;17.33;32.21;100836.28;6115889;23;98026;-78
2024/03/17 09:46:14;;;;;;;8.77;2.78;;;;;;;18.62;31.06;100812.22;6116599;22;100237;-77
2024/03/17 09:48:40;;;;;;;7.78;2.20;;;;;;;18.59;30.36;100820.34;6116226;23;97268;-78
2024/03/17 09:51:05;;;;;;;8.55;3.10;;;;;;;20.04;28.46;100811.31;6116848;23;96831;-77
2024/03/17 09:53:33;;;;;;;8.65;2.42;;;;;;;20.47;27.77;100805.75;6116956;23;97433;-80
2024/03/17 09:56:01;;;;;;;7.05;2.25;;;;;;;18.85;29.23;100811.72;6092539;23;97442;-78
2024/03/17 09:58:27;;;;;;;9.25;3.88;;;;;;;18.70;29.54;100815.25;6091060;23;96646;-81
2024/03/17 10:00:52;;;;;;;6.47;1.95;;;;;;;18.68;29.50;100825.13;6117734;23;96740;-77
2024/03/17 10:03:54;;;;;;;7.85;1.98;;;;;;;17.97;29.86;100823.91;6115284;23;97368;-78
2024/03/17 10:06:23;;;;;;;8.30;2.00;;;;;;;17.69;30.66;100821.94;6118137;23;97516;-77
2024/03/17 10:08:50;;;;;;;6.38;2.15;;;;;;;18.47;29.98;100820.16;6117803;23;96574;-77
2024/03/17 10:11:23;;;;;;;8.55;2.00;;;;;;;17.19;31.21;100821.13;6118689;22;96897;-75
2024/03/17 10:13:59;;;;;;;10.05;2.17;;;;;;;16.29;32.35;100809.88;6090136;23;100170;-77
2024/03/17 10:16:27;;;;;;;10.68;2.38;;;;;;;16.83;31.98;100817.75;6118024;23;97918;-77
2024/03/17 10:19:10;;;;;;;6.45;1.88;;;;;;;16.49;32.96;100817.69;6116332;23;97266;-77
2024/03/17 10:21:36;;;;;;;9.85;2.53;;;;;;;16.05;33.12;100806.63;6119117;22;96741;-77
2024/03/17 10:24:07;;;;;;;7.82;2.08;;;;;;;16.13;33.11;100823.00;6093883;22;99350;-77
2024/03/17 10:26:36;;;;;;;7.90;2.78;;;;;;;15.63;33.49;100823.63;6145311;22;97439;-77
2024/03/17 10:29:02;;;;;;;11.80;2.60;;;;;;;15.49;33.99;100811.03;6092568;22;97237;-77
2024/03/17 10:31:28;;;;;;;11.40;2.72;;;;;;;15.51;34.85;100824.22;6093289;22;97246;-79
2024/03/17 10:34:03;;;;;;;8.23;2.47;;;;;;;15.30;34.53;100816.34;6117182;22;97680;-77
2024/03/17 10:36:28;;;;;;;8.32;2.40;;;;;;;15.37;33.81;100814.25;6143915;22;97986;-78
2024/03/17 10:38:54;;;;;;;10.20;2.80;;;;;;;14.90;35.01;100819.91;6117763;22;96730;-78
2024/03/17 10:41:22;;;;;;;14.88;2.45;;;;;;;14.90;34.94;100820.75;6142700;22;97140;-76
2024/03/17 10:43:47;;;;;;;12.57;2.58;;;;;;;14.53;35.24;100816.19;6141968;22;100173;-78
2024/03/17 10:46:15;;;;;;;11.32;2.92;;;;;;;14.56;36.16;100821.34;6121401;22;97474;-81
2024/03/17 10:48:42;;;;;;;10.85;2.35;;;;;;;14.58;35.36;100816.03;6118943;22;97035;-77
2024/03/17 10:51:15;;;;;;;10.35;2.55;;;;;;;14.42;36.31;100815.75;6117580;22;96887;-77
2024/03/17 10:53:43;;;;;;;10.02;2.58;;;;;;;14.25;36.47;100808.53;6114295;22;97590;-76
2024/03/17 10:56:10;;;;;;;11.93;2.40;;;;;;;14.38;36.25;100804.47;6117231;22;97204;-78
2024/03/17 10:58:36;;;;;;;7.75;2.13;;;;;;;14.41;35.80;100814.91;6118945;22;97039;-77
2024/03/17 11:01:02;;;;;;;7.85;2.22;;;;;;;14.37;36.16;100808.06;6095761;22;97055;-78
2024/03/17 11:03:31;;;;;;;10.77;2.95;;;;;;;14.43;36.06;100810.44;6120224;22;97326;-80
2024/03/17 11:05:57;;;;;;;9.02;2.10;;;;;;;14.50;36.92;100825.06;6071101;22;100609;-78
2024/03/17 11:08:23;;;;;;;11.35;2.30;;;;;;;14.41;35.41;100814.06;6069806;22;96743;-79
2024/03/17 11:10:52;;;;;;;7.32;2.20;;;;;;;14.42;35.39;100806.06;6095250;22;96791;-79
2024/03/17 11:13:28;;;;;;;9.85;2.15;;;;;;;14.50;35.16;100811.88;6094710;22;101023;-78
2024/03/17 11:16:04;;;;;;;13.73;3.08;;;;;;;14.47;35.30;100784.72;6144871;22;97231;-79
2024/03/17 11:18:35;;;;;;;8.43;1.80;;;;;;;14.66;34.98;100801.56;6120409;22;96672;-83
2024/03/17 11:21:10;;;;;;;6.45;2.05;;;;;;;14.49;34.52;100801.38;6094624;22;97104;-79
2024/03/17 11:23:39;;;;;;;7.28;2.20;;;;;;;14.33;35.08;100802.94;6072123;22;100522;-79
2024/03/17 11:26:05;;;;;;;9.35;2.22;;;;;;;14.24;34.49;100791.84;6095553;22;100726;-81